createdAt,value
2019-05-12T00:00:18.429Z,97776.11
2019-05-12T00:02:47.915Z,97777.55
2019-05-12T00:05:13.389Z,97777.58
2019-05-12T00:07:40.836Z,97780.31
2019-05-12T00:10:08.752Z,97774.91
2019-05-12T00:12:37.908Z,97775.79
2019-05-12T00:15:03.372Z,97774.25
2019-05-12T00:17:30.857Z,97774.78
2019-05-12T00:19:58.503Z,97767.73
2019-05-12T00:22:25.843Z,97768.62
2019-05-12T00:24:53.300Z,97768.49
2019-05-12T00:27:20.754Z,97773.55
2019-05-12T00:29:48.628Z,97776.53
2019-05-12T00:32:17.819Z,97780.94
2019-05-12T00:34:43.245Z,97778.91
2019-05-12T00:37:10.735Z,97783.27
2019-05-12T00:39:38.346Z,97792.50
2019-05-12T00:42:07.733Z,97785.03
2019-05-12T00:44:33.530Z,97791.52
2019-05-12T00:47:00.992Z,97795.63
2019-05-12T00:49:29.089Z,97789.41
2019-05-12T00:51:55.978Z,97784.58
2019-05-12T00:54:23.433Z,97784.50
2019-05-12T00:56:50.908Z,97783.04
2019-05-12T00:59:19.097Z,97786.55
2019-05-12T01:01:48.058Z,97785.09
2019-05-12T01:04:13.511Z,97786.88
2019-05-12T01:06:40.995Z,97790.20
2019-05-12T01:09:08.997Z,97790.75
2019-05-12T01:11:37.834Z,97791.48
2019-05-12T01:14:03.497Z,97788.98
2019-05-12T01:16:31.072Z,97786.58
2019-05-12T01:18:58.679Z,97789.69
2019-05-12T01:21:26.032Z,97785.25
2019-05-12T01:23:59.804Z,97789.40
2019-05-12T01:26:20.993Z,97795.28
2019-05-12T01:28:48.927Z,97798.45
2019-05-12T01:31:18.042Z,97801.30
2019-05-12T01:33:43.527Z,97801.31
2019-05-12T01:36:11.346Z,97805.55
2019-05-12T01:38:38.783Z,97810.65
2019-05-12T01:41:08.568Z,97810.59
2019-05-12T01:43:33.730Z,97806.53
2019-05-12T01:46:01.200Z,97810.89
2019-05-12T01:48:28.887Z,97809.80
2019-05-12T01:50:57.953Z,97814.31
2019-05-12T01:53:23.754Z,97809.08
2019-05-12T01:55:51.194Z,97805.27
2019-05-12T01:58:19.396Z,97813.27
2019-05-12T02:00:48.109Z,97806.17
2019-05-12T02:03:13.747Z,97812.81
2019-05-12T02:05:41.236Z,97810.27
2019-05-12T02:08:09.723Z,97803.69
2019-05-12T02:10:38.735Z,97807.47
2019-05-12T02:13:04.107Z,97813.11
2019-05-12T02:15:31.595Z,97822.96
2019-05-12T02:17:59.233Z,97831.95
2019-05-12T02:20:28.550Z,97837.02
2019-05-12T02:22:54.048Z,97836.36
2019-05-12T02:25:21.551Z,97830.27
2019-05-12T02:27:48.998Z,97832.83
2019-05-12T02:30:19.748Z,97841.61
2019-05-12T02:32:49.603Z,97841.95
2019-05-12T02:35:11.426Z,97835.39
2019-05-12T02:37:38.885Z,97839.23
2019-05-12T02:40:07.159Z,97835.59
2019-05-12T02:42:35.050Z,97837.37
2019-05-12T02:45:05.252Z,97843.58
2019-05-12T02:47:29.652Z,97847.81
2019-05-12T02:49:57.108Z,97848.42
2019-05-12T02:52:25.464Z,97841.42
2019-05-12T02:55:00.237Z,97836.50
2019-05-12T02:57:20.420Z,97838.51
2019-05-12T02:59:47.896Z,97837.55
2019-05-12T03:02:15.349Z,97840.72
2019-05-12T03:04:44.211Z,97833.67
2019-05-12T03:07:10.369Z,97844.00
2019-05-12T03:09:37.832Z,97844.05
2019-05-12T03:12:06.070Z,97840.38
2019-05-12T03:14:39.330Z,97845.05
2019-05-12T03:17:00.827Z,97845.62
2019-05-12T03:19:28.333Z,97846.50
2019-05-12T03:21:55.801Z,97853.95
2019-05-12T03:24:24.969Z,97857.93
2019-05-12T03:26:50.851Z,97857.20
2019-05-12T03:29:18.319Z,97855.95
2019-05-12T03:31:48.789Z,97859.70
2019-05-12T03:34:19.869Z,97861.91
2019-05-12T03:36:43.514Z,97866.63
2019-05-12T03:39:09.000Z,97860.36
2019-05-12T03:41:36.475Z,97861.39
2019-05-12T03:44:05.100Z,97859.54
2019-05-12T03:46:35.027Z,97864.02
2019-05-12T03:48:59.139Z,97866.56
2019-05-12T03:51:26.675Z,97864.60
2019-05-12T03:53:55.660Z,97863.12
2019-05-12T03:56:21.715Z,97862.95
2019-05-12T03:58:49.179Z,97863.42
2019-05-12T04:01:17.151Z,97863.42
2019-05-12T04:03:45.050Z,97873.84
2019-05-12T04:06:11.227Z,97871.16
2019-05-12T04:08:38.492Z,97871.73
2019-05-12T04:11:05.957Z,97876.34
2019-05-12T04:13:34.203Z,97877.10
2019-05-12T04:16:00.459Z,97876.02
2019-05-12T04:18:27.450Z,97881.70
2019-05-12T04:20:54.917Z,97882.06
2019-05-12T04:23:24.770Z,97885.34
2019-05-12T04:25:54.778Z,97877.70
2019-05-12T04:28:17.004Z,97880.22
2019-05-12T04:30:44.722Z,97887.73
2019-05-12T04:33:15.133Z,97886.78
2019-05-12T04:35:39.507Z,97891.30
2019-05-12T04:38:06.971Z,97893.67
2019-05-12T04:40:35.792Z,97894.02
2019-05-12T04:43:05.134Z,97898.96
2019-05-12T04:45:29.593Z,97898.16
2019-05-12T04:47:57.056Z,97895.13
2019-05-12T04:50:25.020Z,97894.61
2019-05-12T04:52:54.837Z,97898.19
2019-05-12T04:55:20.013Z,97902.05
2019-05-12T04:57:47.489Z,97907.59
2019-05-12T05:00:16.007Z,97907.53
2019-05-12T05:02:45.273Z,97907.95
2019-05-12T05:05:10.707Z,97916.71
2019-05-12T05:07:38.164Z,97911.97
2019-05-12T05:10:06.269Z,97911.13
2019-05-12T05:12:34.507Z,97913.63
2019-05-12T05:15:01.314Z,97908.27
2019-05-12T05:17:28.779Z,97917.69
2019-05-12T05:19:56.243Z,97915.00
2019-05-12T05:22:24.303Z,97926.09
2019-05-12T05:24:53.493Z,97930.87
2019-05-12T05:27:18.747Z,97937.76
2019-05-12T05:29:46.316Z,97934.84
2019-05-12T05:32:14.103Z,97937.77
2019-05-12T05:34:46.090Z,97939.09
2019-05-12T05:37:08.918Z,97933.95
2019-05-12T05:39:47.955Z,97936.45
2019-05-12T05:42:04.555Z,97940.06
2019-05-12T05:44:34.798Z,97943.36
2019-05-12T05:46:58.882Z,97950.52
2019-05-12T05:49:26.416Z,97951.47
2019-05-12T05:51:56.823Z,97959.03
2019-05-12T05:54:24.673Z,97957.37
2019-05-12T05:56:58.175Z,97965.13
2019-05-12T05:59:21.166Z,97973.09
2019-05-12T06:01:47.139Z,97966.57
2019-05-12T06:04:14.029Z,97964.54
2019-05-12T06:06:42.708Z,97965.80
2019-05-12T06:09:07.143Z,97970.76
2019-05-12T06:11:34.715Z,97975.16
2019-05-12T06:14:11.058Z,97977.67
2019-05-12T06:16:29.679Z,97972.34
2019-05-12T06:18:57.119Z,97978.06
2019-05-12T06:21:29.161Z,97977.94
2019-05-12T06:23:54.031Z,97981.97
2019-05-12T06:26:21.207Z,97985.21
2019-05-12T06:28:47.270Z,97981.14
2019-05-12T06:31:18.948Z,97978.98
2019-05-12T06:33:44.546Z,97988.20
2019-05-12T06:36:19.130Z,97988.71
2019-05-12T06:38:40.464Z,97983.48
2019-05-12T06:41:05.027Z,97991.76
2019-05-12T06:43:35.060Z,97995.47
2019-05-12T06:46:00.005Z,97990.52
2019-05-12T06:48:30.244Z,97998.63
2019-05-12T06:50:54.984Z,98000.12
2019-05-12T06:53:26.515Z,97991.78
2019-05-12T06:55:50.324Z,97997.26
2019-05-12T06:58:26.016Z,97997.19
2019-05-12T07:00:45.290Z,98002.13
2019-05-12T07:03:14.256Z,97997.76
2019-05-12T07:05:42.633Z,98008.52
2019-05-12T07:08:07.736Z,98006.57
2019-05-12T07:10:42.992Z,98004.52
2019-05-12T07:13:05.588Z,98013.00
2019-05-12T07:15:35.866Z,98013.58
2019-05-12T07:18:10.070Z,98012.39
2019-05-12T07:20:39.072Z,98014.45
2019-05-12T07:23:04.144Z,98016.13
2019-05-12T07:25:35.935Z,98012.11
2019-05-12T07:28:01.500Z,98014.74
2019-05-12T07:30:26.502Z,98013.47
2019-05-12T07:32:59.649Z,98029.03
2019-05-12T07:35:21.471Z,98021.64
2019-05-12T07:37:48.929Z,98027.65
2019-05-12T07:40:18.956Z,98028.98
2019-05-12T07:42:43.998Z,98026.23
2019-05-12T07:45:20.023Z,98021.03
2019-05-12T07:47:38.974Z,98027.83
2019-05-12T07:50:09.897Z,98023.67
2019-05-12T07:52:35.483Z,98030.58
2019-05-12T07:55:04.290Z,98034.19
2019-05-12T07:57:30.503Z,98029.62
2019-05-12T07:59:57.962Z,98025.95
2019-05-12T08:02:31.522Z,98029.77
2019-05-12T08:04:54.186Z,98024.42
2019-05-12T08:07:28.260Z,98048.15
2019-05-12T08:09:50.564Z,98025.40
2019-05-12T08:12:20.964Z,98027.11
2019-05-12T08:14:45.547Z,98025.48
2019-05-12T08:17:18.625Z,98026.55
2019-05-12T08:19:40.465Z,98032.52
2019-05-12T08:22:07.917Z,98026.51
2019-05-12T08:24:42.825Z,98039.61
2019-05-12T08:27:06.294Z,98044.27
2019-05-12T08:29:30.531Z,98040.54
2019-05-12T08:31:57.987Z,98038.06
2019-05-12T08:34:25.633Z,98042.34
2019-05-12T08:36:56.776Z,98038.45
2019-05-12T08:39:23.033Z,98041.79
2019-05-12T08:41:48.416Z,98043.14
2019-05-12T08:44:17.613Z,98045.86
2019-05-12T08:46:52.411Z,98044.59
2019-05-12T08:49:10.954Z,98032.48
2019-05-12T08:51:38.441Z,98040.81
2019-05-12T08:54:08.178Z,98042.86
2019-05-12T08:56:33.429Z,98048.57
2019-05-12T08:59:01.027Z,98051.30
2019-05-12T09:01:30.801Z,98044.25
2019-05-12T09:04:00.220Z,98049.80
2019-05-12T09:06:23.843Z,98053.48
2019-05-12T09:08:51.040Z,98053.05
2019-05-12T09:11:18.608Z,98062.95
2019-05-12T09:13:46.121Z,98051.57
2019-05-12T09:16:13.988Z,98052.58
2019-05-12T09:18:43.302Z,98046.89
2019-05-12T09:21:08.617Z,98048.99
2019-05-12T09:23:41.045Z,98057.16
2019-05-12T09:26:04.113Z,98055.96
2019-05-12T09:28:44.351Z,98049.89
2019-05-12T09:30:59.037Z,98052.29
2019-05-12T09:33:31.551Z,98054.88
2019-05-12T09:35:54.184Z,98050.22
2019-05-12T09:38:24.116Z,98042.70
2019-05-12T09:40:52.840Z,98049.71
2019-05-12T09:43:17.456Z,98050.27
2019-05-12T09:45:52.167Z,98064.25
2019-05-12T09:48:14.076Z,98059.92
2019-05-12T09:50:43.461Z,98052.70
2019-05-12T09:53:11.429Z,98049.13
2019-05-12T09:55:36.616Z,98055.33
2019-05-12T09:58:04.257Z,98050.13
2019-05-12T10:00:35.779Z,98042.71
2019-05-12T10:03:00.742Z,98047.40
2019-05-12T10:05:30.547Z,98050.74
2019-05-12T10:07:54.469Z,98047.88
2019-05-12T10:10:24.275Z,98057.36
2019-05-12T10:12:50.738Z,98048.63
2019-05-12T10:15:24.783Z,98053.62
2019-05-12T10:17:45.804Z,98054.70
2019-05-12T10:20:13.784Z,98052.00
2019-05-12T10:22:43.531Z,98048.84
2019-05-12T10:25:08.891Z,98048.04
2019-05-12T10:27:36.505Z,98049.23
2019-05-12T10:30:12.250Z,98040.59
2019-05-12T10:32:34.316Z,98031.08
2019-05-12T10:35:01.742Z,98036.05
2019-05-12T10:37:29.516Z,98032.67
2019-05-12T10:39:56.830Z,98028.89
2019-05-12T10:42:24.462Z,98033.41
2019-05-12T10:44:54.461Z,98030.02
2019-05-12T10:47:20.122Z,98029.28
2019-05-12T10:49:47.695Z,98035.10
2019-05-12T10:52:16.377Z,98034.33
2019-05-12T10:54:43.872Z,98021.05
2019-05-12T10:57:13.970Z,98026.29
2019-05-12T10:59:46.159Z,98025.49
2019-05-12T11:02:07.393Z,98030.19
2019-05-12T11:04:39.008Z,98031.53
2019-05-12T11:07:04.596Z,98025.45
2019-05-12T11:09:32.302Z,98020.81
2019-05-12T11:11:58.556Z,98016.11
2019-05-12T11:14:30.294Z,98021.23
2019-05-12T11:16:54.276Z,98018.91
2019-05-12T11:19:21.502Z,98011.97
2019-05-12T11:21:49.149Z,98006.63
2019-05-12T11:24:16.612Z,98015.51
2019-05-12T11:26:45.189Z,98007.91
2019-05-12T11:29:14.170Z,98004.22
2019-05-12T11:31:40.497Z,98017.23
2019-05-12T11:34:07.934Z,98016.77
2019-05-12T11:36:35.518Z,98002.69
2019-05-12T11:39:03.668Z,98019.13
2019-05-12T11:41:30.506Z,98010.13
2019-05-12T11:43:57.990Z,98006.86
2019-05-12T11:46:25.457Z,97996.37
2019-05-12T11:48:53.845Z,97996.86
2019-05-12T11:51:20.696Z,97997.79
2019-05-12T11:53:48.866Z,97993.73
2019-05-12T11:56:16.348Z,97998.34
2019-05-12T11:58:47.407Z,98003.56
2019-05-12T12:01:13.335Z,98003.30
2019-05-12T12:03:38.899Z,98001.70
2019-05-12T12:06:06.410Z,98006.37
2019-05-12T12:08:37.077Z,98009.00
2019-05-12T12:11:03.828Z,98016.23
2019-05-12T12:13:30.124Z,98001.23
2019-05-12T12:16:00.402Z,97999.27
2019-05-12T12:18:24.177Z,98001.70
2019-05-12T12:20:55.070Z,98001.23
2019-05-12T12:23:19.229Z,98005.23
2019-05-12T12:25:48.699Z,98004.82
2019-05-12T12:28:14.199Z,97982.52
2019-05-12T12:30:41.663Z,97993.53
2019-05-12T12:33:09.127Z,97985.39
2019-05-12T12:35:36.668Z,97984.44
2019-05-12T12:38:04.399Z,97982.77
2019-05-12T12:40:31.936Z,97983.34
2019-05-12T12:42:59.452Z,97996.31
2019-05-12T12:45:40.574Z,97990.45
2019-05-12T12:48:07.557Z,98010.35
2019-05-12T12:50:35.086Z,98016.92
2019-05-12T12:53:02.557Z,98006.80
2019-05-12T12:55:30.035Z,97989.25
2019-05-12T12:57:57.479Z,98015.62
2019-05-12T13:00:32.212Z,98001.53
2019-05-12T13:02:52.941Z,98010.91
2019-05-12T13:05:20.455Z,98008.34
2019-05-12T13:07:48.117Z,97993.02
2019-05-12T13:10:15.577Z,97986.38
2019-05-12T13:12:43.771Z,97991.80
2019-05-12T13:15:10.555Z,97984.28
2019-05-12T13:17:41.789Z,97981.80
2019-05-12T13:20:05.814Z,97973.73
2019-05-12T13:22:33.770Z,97976.25
2019-05-12T13:25:04.470Z,97979.83
2019-05-12T13:27:29.264Z,97972.94
2019-05-12T13:29:55.794Z,97968.92
2019-05-12T13:32:31.831Z,97982.34
2019-05-12T13:34:52.035Z,97973.00
2019-05-12T13:37:19.552Z,97961.82
2019-05-12T13:39:55.477Z,97973.27
2019-05-12T13:42:13.674Z,97966.87
2019-05-12T13:44:40.963Z,97960.09
2019-05-12T13:47:08.331Z,97955.87
2019-05-12T13:49:40.586Z,97956.63
2019-05-12T13:52:04.201Z,97955.92
2019-05-12T13:54:31.132Z,97955.80
2019-05-12T13:57:03.712Z,97949.23
2019-05-12T13:59:26.438Z,97947.96
2019-05-12T14:01:58.531Z,97942.09
2019-05-12T14:04:27.865Z,97944.08
2019-05-12T14:06:53.609Z,97944.89
2019-05-12T14:09:21.235Z,97946.00
2019-05-12T14:11:48.705Z,97939.66
2019-05-12T14:14:16.171Z,97938.97
2019-05-12T14:16:52.518Z,97943.39
2019-05-12T14:19:11.300Z,97937.74
2019-05-12T14:21:41.090Z,97936.09
2019-05-12T14:24:06.456Z,97933.73
2019-05-12T14:26:33.924Z,97935.72
2019-05-12T14:29:03.792Z,97933.47
2019-05-12T14:31:35.087Z,97942.48
2019-05-12T14:33:56.784Z,97942.60
2019-05-12T14:36:26.546Z,97935.69
2019-05-12T14:38:54.685Z,97932.02
2019-05-12T14:41:24.841Z,97939.72
2019-05-12T14:43:53.564Z,97940.70
2019-05-12T14:46:18.150Z,97943.48
2019-05-12T14:48:50.175Z,97943.22
2019-05-12T14:51:14.119Z,97942.61
2019-05-12T14:53:41.128Z,97934.84
2019-05-12T14:56:08.788Z,97930.11
2019-05-12T14:58:36.981Z,97939.89
2019-05-12T15:01:04.461Z,97928.75
2019-05-12T15:03:34.059Z,97935.63
2019-05-12T15:05:59.479Z,97923.98
2019-05-12T15:08:36.280Z,97930.24
2019-05-12T15:10:54.584Z,97932.20
2019-05-12T15:13:24.022Z,97929.93
2019-05-12T15:15:50.134Z,97925.36
2019-05-12T15:18:17.698Z,97914.68
2019-05-12T15:20:49.749Z,97927.37
2019-05-12T15:23:14.327Z,97926.87
2019-05-12T15:25:40.435Z,97921.56
2019-05-12T15:28:07.921Z,97937.08
2019-05-12T15:30:35.383Z,97930.22
2019-05-12T15:33:04.547Z,97950.14
2019-05-12T15:35:30.678Z,97932.60
2019-05-12T15:37:58.188Z,97954.00
2019-05-12T15:40:25.966Z,97949.55
2019-05-12T15:42:55.026Z,97928.91
2019-05-12T15:45:20.917Z,97945.28
2019-05-12T15:47:49.978Z,97951.08
2019-05-12T15:50:17.223Z,97949.89
2019-05-12T15:52:45.530Z,97954.67
2019-05-12T15:55:13.478Z,97955.98
2019-05-12T15:57:38.534Z,97945.05
2019-05-12T16:00:05.665Z,97950.17
2019-05-12T16:02:34.022Z,97956.64
2019-05-12T16:05:00.233Z,97958.15
2019-05-12T16:07:29.725Z,97973.52
2019-05-12T16:09:55.314Z,97962.35
2019-05-12T16:12:24.358Z,97969.03
2019-05-12T16:14:53.847Z,97967.71
2019-05-12T16:17:24.741Z,97976.36
2019-05-12T16:19:46.244Z,97966.39
2019-05-12T16:22:14.032Z,97969.22
2019-05-12T16:24:43.512Z,97969.46
2019-05-12T16:27:08.931Z,97976.98
2019-05-12T16:29:38.930Z,97972.91
2019-05-12T16:32:04.667Z,97973.14
2019-05-12T16:34:36.192Z,97966.21
2019-05-12T16:37:00.078Z,97976.11
2019-05-12T16:39:30.308Z,97959.84
2019-05-12T16:42:00.023Z,97981.44
2019-05-12T16:44:26.063Z,97972.78
2019-05-12T16:46:53.028Z,97967.00
2019-05-12T16:49:18.855Z,97957.38
2019-05-12T16:51:46.550Z,97965.59
2019-05-12T16:54:14.079Z,97969.83
2019-05-12T16:56:43.346Z,97979.38
2019-05-12T16:59:16.803Z,97987.11
2019-05-12T17:01:37.033Z,97987.47
2019-05-12T17:04:04.840Z,97986.78
2019-05-12T17:06:36.777Z,97991.43
2019-05-12T17:09:03.355Z,98002.64
2019-05-12T17:11:30.883Z,98003.97
2019-05-12T17:14:02.186Z,98002.11
2019-05-12T17:16:25.131Z,98021.20
2019-05-12T17:18:53.335Z,98031.10
2019-05-12T17:23:54.208Z,98024.70
2019-05-12T17:26:24.248Z,98023.50
2019-05-12T17:28:50.271Z,98029.36
2019-05-12T17:31:17.743Z,98029.16
2019-05-12T17:33:45.212Z,98023.79
2019-05-12T17:36:17.693Z,98032.20
2019-05-12T17:38:40.494Z,98040.09
2019-05-12T17:41:07.955Z,98033.14
2019-05-12T17:43:35.495Z,98031.43
2019-05-12T17:46:04.470Z,98043.63
2019-05-12T17:48:30.498Z,98050.06
2019-05-12T17:50:58.010Z,98034.00
2019-05-12T17:53:30.346Z,98039.80
2019-05-12T17:55:53.982Z,98035.67
2019-05-12T17:58:20.683Z,98023.67
2019-05-12T18:00:51.851Z,98038.45
2019-05-12T18:03:21.891Z,98033.27
2019-05-12T18:05:48.095Z,98038.31
2019-05-12T18:08:10.903Z,98038.34
2019-05-12T18:10:39.602Z,98042.06
2019-05-12T18:13:06.023Z,98046.61
2019-05-12T18:15:37.821Z,98035.95
2019-05-12T18:18:01.166Z,98038.03
2019-05-12T18:20:31.131Z,98051.59
2019-05-12T18:22:56.607Z,98058.08
2019-05-12T18:25:30.459Z,98061.86
2019-05-12T18:27:54.021Z,98066.73
2019-05-12T18:30:19.394Z,98066.49
2019-05-12T18:32:46.743Z,98067.61
2019-05-12T18:35:14.252Z,98070.63
2019-05-12T18:37:41.720Z,98068.17
2019-05-12T18:40:09.179Z,98073.84
2019-05-12T18:42:36.658Z,98082.13
2019-05-12T18:45:11.951Z,98086.78
2019-05-12T18:47:35.738Z,98080.34
2019-05-12T18:49:59.247Z,98079.84
2019-05-12T18:52:29.306Z,98090.00
2019-05-12T18:54:57.112Z,98082.34
2019-05-12T18:57:23.805Z,98078.58
2019-05-12T18:59:57.666Z,98086.13
2019-05-12T19:02:23.391Z,98080.94
2019-05-12T19:04:44.384Z,98083.23
2019-05-12T19:07:11.722Z,98071.63
2019-05-12T19:09:39.212Z,98079.28
2019-05-12T19:12:15.798Z,98086.52
2019-05-12T19:14:36.889Z,98093.83
2019-05-12T19:17:03.580Z,98090.11
2019-05-12T19:19:29.164Z,98090.64
2019-05-12T19:22:04.800Z,98090.77
2019-05-12T19:24:24.391Z,98098.38
2019-05-12T19:26:54.156Z,98098.91
2019-05-12T19:29:19.436Z,98102.16
2019-05-12T19:31:52.394Z,98100.50
2019-05-12T19:34:22.008Z,98104.55
2019-05-12T19:36:47.489Z,98111.91
2019-05-12T19:39:09.434Z,98121.45
2019-05-12T19:41:38.105Z,98108.84
2019-05-12T19:44:04.403Z,98116.39
2019-05-12T19:46:34.035Z,98112.47
2019-05-12T19:48:59.616Z,98111.79
2019-05-12T19:51:28.303Z,98121.48
2019-05-12T19:53:54.609Z,98119.33
2019-05-12T19:56:23.889Z,98126.78
2019-05-12T19:58:49.739Z,98126.61
2019-05-12T20:01:17.304Z,98126.98
2019-05-12T20:03:44.754Z,98124.69
2019-05-12T20:06:13.572Z,98132.87
2019-05-12T20:08:39.856Z,98125.30
2019-05-12T20:11:07.315Z,98120.50
2019-05-12T20:13:35.939Z,98122.77
2019-05-12T20:16:01.684Z,98126.89
2019-05-12T20:18:28.867Z,98120.94
2019-05-12T20:20:56.324Z,98140.59
2019-05-12T20:23:24.510Z,98135.83
2019-05-12T20:25:53.487Z,98125.61
2019-05-12T20:28:20.269Z,98126.50
2019-05-12T20:30:52.298Z,98133.25
2019-05-12T20:33:16.685Z,98134.64
2019-05-12T20:35:49.075Z,98130.03
2019-05-12T20:38:14.843Z,98124.19
2019-05-12T20:40:43.308Z,98125.97
2019-05-12T20:43:12.120Z,98125.38
2019-05-12T20:45:40.894Z,98124.83
2019-05-12T20:48:05.240Z,98116.41
2019-05-12T20:50:38.736Z,98132.05
2019-05-12T20:53:01.155Z,98115.39
2019-05-12T20:55:30.137Z,98139.17
2019-05-12T20:57:56.888Z,98136.90
2019-05-12T21:00:24.431Z,98110.37
2019-05-12T21:02:51.173Z,98127.17
2019-05-12T21:05:20.123Z,98129.90
2019-05-12T21:07:46.188Z,98116.88
2019-05-12T21:10:14.645Z,98119.22
2019-05-12T21:12:46.518Z,98115.34
2019-05-12T21:15:16.461Z,98111.56
2019-05-12T21:17:43.113Z,98109.00
2019-05-12T21:20:04.571Z,98112.92
2019-05-12T21:22:33.975Z,98107.86
2019-05-12T21:24:59.163Z,98108.21
2019-05-12T21:27:26.631Z,98114.67
2019-05-12T21:29:54.338Z,98121.29
2019-05-12T21:32:24.065Z,98108.33
2019-05-12T21:34:52.302Z,98107.97
2019-05-12T21:37:16.817Z,98124.63
2019-05-12T21:39:49.178Z,98116.34
2019-05-12T21:42:11.846Z,98123.59
2019-05-12T21:44:41.239Z,98102.66
2019-05-12T21:47:10.376Z,98120.86
2019-05-12T21:49:34.436Z,98130.70
2019-05-12T21:52:05.940Z,98112.45
2019-05-12T21:54:36.166Z,98117.94
2019-05-12T21:56:58.678Z,98123.00
2019-05-12T21:59:29.003Z,98119.70
2019-05-12T22:01:54.526Z,98120.99
2019-05-12T22:04:23.548Z,98115.34
2019-05-12T22:06:51.361Z,98112.81
2019-05-12T22:09:17.515Z,98111.86
2019-05-12T22:11:51.464Z,98112.94
2019-05-12T22:14:13.662Z,98111.11
2019-05-12T22:16:44.283Z,98113.31
2019-05-12T22:19:07.436Z,98111.13
2019-05-12T22:21:37.077Z,98117.27
2019-05-12T22:24:04.003Z,98106.41
2019-05-12T22:26:30.776Z,98099.05
2019-05-12T22:28:57.735Z,98091.30
2019-05-12T22:31:25.263Z,98106.84
2019-05-12T22:33:56.250Z,98099.55
2019-05-12T22:36:26.771Z,98098.14
2019-05-12T22:38:51.992Z,98106.89
2019-05-12T22:41:16.762Z,98098.19
2019-05-12T22:43:45.922Z,98105.33
2019-05-12T22:46:16.172Z,98108.06
2019-05-12T22:48:40.680Z,98098.84
2019-05-12T22:51:15.230Z,98089.86
2019-05-12T22:53:34.389Z,98101.51
2019-05-12T22:56:05.118Z,98105.05
2019-05-12T22:58:29.464Z,98102.31
2019-05-12T23:01:00.734Z,98091.57
2019-05-12T23:03:24.541Z,98101.95
2019-05-12T23:06:00.287Z,98102.39
2019-05-12T23:08:19.657Z,98095.72
2019-05-12T23:10:51.556Z,98085.19
2019-05-12T23:13:14.706Z,98085.28
2019-05-12T23:15:45.170Z,98099.55
2019-05-12T23:18:09.739Z,98087.63
2019-05-12T23:20:37.213Z,98083.17
2019-05-12T23:23:08.914Z,98074.10
2019-05-12T23:25:33.631Z,98085.08
2019-05-12T23:28:00.299Z,98071.70
2019-05-12T23:30:27.319Z,98063.99
2019-05-12T23:32:54.818Z,98055.05
2019-05-12T23:35:22.279Z,98063.97
2019-05-12T23:37:49.730Z,98067.48
2019-05-12T23:40:17.205Z,98061.98
2019-05-12T23:42:44.735Z,98053.74
2019-05-12T23:45:13.959Z,98052.87
2019-05-12T23:47:40.040Z,98049.09
2019-05-12T23:50:07.575Z,98057.17
2019-05-12T23:52:35.092Z,98053.66
2019-05-12T23:55:02.619Z,98048.89
2019-05-12T23:57:30.240Z,98041.19
2019-05-12T23:59:57.829Z,98054.41
